Time;durP1;ratioP1;P1;durP2;ratioP2;P2;SDS_P1;SDS_P2;PMS_P1;PMS_P2;Temp;Humidity;BMP_temperature;BMP_pressure;BME280_temperature;BME280_humidity;BME280_pressure;Samples;Min_cycle;Max_cycle;Signal;HPM_P1;HPM_P2
2022/01/01 00:01:48;;;;;;;6.13;5.30;;;11.40;99.90;;;;;;8471086;27;20186;-83
2022/01/01 00:05:48;;;;;;;6.17;5.57;;;11.40;99.90;;;;;;8473664;27;20261;-83
2022/01/01 00:09:49;;;;;;;6.23;5.50;;;11.50;99.90;;;;;;8453927;27;20206;-84
2022/01/01 00:13:50;;;;;;;9.10;5.90;;;11.50;99.90;;;;;;8461019;27;20199;-83
2022/01/01 00:17:51;;;;;;;7.33;6.10;;;11.50;99.90;;;;;;8456229;28;20214;-85
2022/01/01 00:21:52;;;;;;;8.43;5.90;;;11.50;99.90;;;;;;8466539;27;20187;-84
2022/01/01 00:25:53;;;;;;;5.93;5.33;;;11.50;99.90;;;;;;8453647;27;20188;-83
2022/01/01 00:29:54;;;;;;;7.03;5.70;;;11.60;99.90;;;;;;8447638;28;20183;-83
2022/01/01 00:33:55;;;;;;;7.57;5.97;;;11.60;99.90;;;;;;8464345;27;20191;-83
2022/01/01 00:37:56;;;;;;;6.93;6.23;;;11.60;99.90;;;;;;8455271;27;20199;-84
2022/01/01 00:41:57;;;;;;;8.90;5.80;;;11.60;99.90;;;;;;8455876;27;20175;-85
2022/01/01 00:45:58;;;;;;;6.90;5.70;;;11.60;99.90;;;;;;8449158;28;20183;-84
2022/01/01 00:49:58;;;;;;;6.40;5.80;;;11.60;99.90;;;;;;8463476;28;20183;-84
2022/01/01 00:53:59;;;;;;;8.53;5.90;;;11.60;99.90;;;;;;8447092;28;20191;-83
2022/01/01 00:58:00;;;;;;;5.73;5.00;;;11.60;99.90;;;;;;8458185;27;20196;-82
2022/01/01 01:02:01;;;;;;;9.13;5.30;;;11.60;99.90;;;;;;8454280;27;20175;-83
2022/01/01 01:06:02;;;;;;;5.50;5.00;;;11.60;99.90;;;;;;8464069;27;20573;-83
2022/01/01 01:10:05;;;;;;;8.60;4.87;;;11.60;99.90;;;;;;8449410;27;20214;-83
2022/01/01 01:14:08;;;;;;;6.23;5.00;;;11.60;99.90;;;;;;8465473;27;20248;-83
2022/01/01 01:18:10;;;;;;;6.07;5.07;;;11.60;99.90;;;;;;8461129;27;20210;-84
2022/01/01 01:22:11;;;;;;;6.87;4.97;;;11.60;99.90;;;;;;8447920;27;20191;-85
2022/01/01 01:26:12;;;;;;;5.93;5.33;;;11.50;99.90;;;;;;8451497;27;20181;-84
2022/01/01 01:30:15;;;;;;;7.87;5.90;;;11.50;99.90;;;;;;8442709;27;20457;-83
2022/01/01 01:34:15;;;;;;;7.77;6.07;;;11.50;99.90;;;;;;8448499;28;20191;-83
2022/01/01 01:38:16;;;;;;;9.73;6.40;;;11.50;99.90;;;;;;8456346;27;20202;-84
2022/01/01 01:42:17;;;;;;;8.37;6.10;;;11.50;99.90;;;;;;8457762;27;20214;-83
2022/01/01 01:46:18;;;;;;;7.73;6.43;;;11.50;99.90;;;;;;8457838;27;20180;-83
2022/01/01 01:50:20;;;;;;;6.90;6.13;;;11.50;99.90;;;;;;8453851;28;20176;-83
2022/01/01 01:54:21;;;;;;;7.27;5.87;;;11.50;99.90;;;;;;8462743;27;20269;-83
2022/01/01 01:58:22;;;;;;;7.17;5.90;;;11.50;99.90;;;;;;8452906;27;20214;-82
2022/01/01 02:02:23;;;;;;;8.03;6.17;;;11.50;99.90;;;;;;8447479;27;20201;-81
2022/01/01 02:06:25;;;;;;;6.47;5.33;;;11.50;99.90;;;;;;8456751;27;20182;-84
2022/01/01 02:10:27;;;;;;;9.00;5.23;;;11.50;99.90;;;;;;8451052;28;20203;-82
2022/01/01 02:18:57;;;;;;;7.20;5.53;;;11.50;99.90;;;;;;8460394;27;20245;-83
2022/01/01 02:23:00;;;;;;;7.67;6.13;;;11.50;99.90;;;;;;8447043;28;20202;-83
2022/01/01 02:27:01;;;;;;;10.40;5.63;;;11.40;99.90;;;;;;8448140;27;20236;-82
2022/01/01 02:31:02;;;;;;;8.00;5.37;;;11.40;99.90;;;;;;8453334;27;20195;-82
2022/01/01 02:35:09;;;;;;;7.57;5.10;;;11.40;99.90;;;;;;8454317;27;20184;-83
2022/01/01 02:39:17;;;;;;;5.63;4.83;;;11.40;99.90;;;;;;8454831;27;20203;-83
2022/01/01 02:43:19;;;;;;;6.60;4.80;;;11.40;99.90;;;;;;8449544;27;20187;-82
2022/01/01 02:47:21;;;;;;;7.40;4.90;;;11.40;99.90;;;;;;8455760;27;20202;-82
2022/01/01 02:51:21;;;;;;;6.33;5.20;;;11.40;99.90;;;;;;8452861;28;20250;-82
2022/01/01 02:55:22;;;;;;;5.63;4.83;;;11.30;99.90;;;;;;8466241;27;20266;-83
2022/01/01 02:59:23;;;;;;;8.87;4.97;;;11.30;99.90;;;;;;8450769;27;20265;-83
2022/01/01 03:03:24;;;;;;;5.77;5.13;;;11.30;99.90;;;;;;8454916;27;20236;-83
2022/01/01 03:07:25;;;;;;;5.63;4.60;;;11.30;99.90;;;;;;8452206;28;20208;-81
2022/01/01 03:11:25;;;;;;;5.70;4.70;;;11.30;99.90;;;;;;8461451;27;20213;-82
2022/01/01 03:15:26;;;;;;;5.03;4.50;;;11.20;99.90;;;;;;8456982;27;20199;-82
2022/01/01 03:19:27;;;;;;;5.43;4.40;;;11.20;99.90;;;;;;8461840;27;20210;-83
2022/01/01 03:23:28;;;;;;;8.27;5.13;;;11.30;99.90;;;;;;8457344;27;20215;-83
2022/01/01 03:27:29;;;;;;;6.17;5.03;;;11.30;99.90;;;;;;8462943;28;20187;-83
2022/01/01 03:31:30;;;;;;;5.90;5.10;;;11.30;99.90;;;;;;8464242;28;20186;-83
2022/01/01 03:35:31;;;;;;;7.00;5.60;;;11.20;99.90;;;;;;8473989;27;20191;-83
2022/01/01 03:39:32;;;;;;;9.03;5.90;;;11.20;99.90;;;;;;8463706;27;20210;-83
2022/01/01 03:43:32;;;;;;;8.63;6.20;;;11.20;99.90;;;;;;8466469;28;20266;-84
2022/01/01 03:47:34;;;;;;;12.37;7.77;;;11.20;99.90;;;;;;8477297;27;20198;-83
2022/01/01 03:51:34;;;;;;;10.03;7.53;;;11.20;99.90;;;;;;8454378;27;20218;-84
2022/01/01 03:55:35;;;;;;;10.10;7.97;;;11.20;99.90;;;;;;8472607;27;20246;-83
2022/01/01 03:59:36;;;;;;;11.10;8.27;;;11.20;99.90;;;;;;8467525;27;20218;-83
2022/01/01 04:03:38;;;;;;;13.53;9.40;;;11.20;99.90;;;;;;8455950;27;20178;-85
2022/01/01 04:07:39;;;;;;;12.33;8.93;;;11.20;99.90;;;;;;8464817;27;20201;-84
2022/01/01 04:11:40;;;;;;;12.97;8.83;;;11.20;99.90;;;;;;8457849;27;20203;-83
2022/01/01 04:15:42;;;;;;;11.30;8.17;;;11.20;99.90;;;;;;8479968;27;20318;-84
2022/01/01 04:19:43;;;;;;;14.43;9.03;;;11.20;99.90;;;;;;8451786;28;20407;-82
2022/01/01 04:23:45;;;;;;;14.00;9.40;;;11.20;99.90;;;;;;8462391;27;20243;-83
2022/01/01 04:27:46;;;;;;;13.73;10.00;;;11.20;99.90;;;;;;8450753;27;20187;-83
2022/01/01 04:31:47;;;;;;;16.17;10.83;;;11.20;99.90;;;;;;8465545;28;20198;-83
2022/01/01 04:35:48;;;;;;;15.37;10.30;;;11.20;99.90;;;;;;8449445;27;20189;-83
2022/01/01 04:39:54;;;;;;;14.73;10.47;;;11.20;99.90;;;;;;8465581;28;20214;-81
2022/01/01 04:43:55;;;;;;;14.90;10.33;;;11.20;99.90;;;;;;8457775;27;20182;-83
2022/01/01 04:47:55;;;;;;;15.80;10.60;;;11.20;99.90;;;;;;8441661;27;20377;-85
2022/01/01 04:51:56;;;;;;;16.07;10.60;;;11.20;99.90;;;;;;8463448;27;20559;-83
2022/01/01 04:55:59;;;;;;;15.77;11.43;;;11.20;99.90;;;;;;8450319;27;20222;-84
2022/01/01 05:00:00;;;;;;;15.43;11.53;;;11.20;99.90;;;;;;8460272;27;20218;-84
2022/01/01 05:04:01;;;;;;;14.40;10.80;;;11.10;99.90;;;;;;8452179;27;20198;-84
2022/01/01 05:08:02;;;;;;;16.27;11.87;;;11.20;99.90;;;;;;8467087;27;20196;-83
2022/01/01 05:12:03;;;;;;;16.53;10.97;;;11.20;99.90;;;;;;8462694;27;20238;-83
2022/01/01 05:16:04;;;;;;;19.73;12.03;;;11.10;99.90;;;;;;8450736;27;20207;-84
2022/01/01 05:20:05;;;;;;;14.70;10.20;;;11.10;99.90;;;;;;8444858;27;20207;-83
2022/01/01 05:24:08;;;;;;;15.63;10.40;;;11.20;99.90;;;;;;8451691;27;20182;-84
2022/01/01 05:28:08;;;;;;;12.20;9.67;;;11.20;99.90;;;;;;8463288;27;20433;-84
2022/01/01 05:32:09;;;;;;;14.87;10.10;;;11.20;99.90;;;;;;8455150;27;20196;-84
2022/01/01 05:36:10;;;;;;;12.23;9.73;;;11.20;99.90;;;;;;8446637;27;20348;-84
2022/01/01 05:40:11;;;;;;;16.20;10.23;;;11.20;99.90;;;;;;8461338;27;20256;-84
2022/01/01 05:44:12;;;;;;;13.37;9.50;;;11.20;99.90;;;;;;8448773;28;20194;-84
2022/01/01 05:48:13;;;;;;;12.80;9.43;;;11.20;99.90;;;;;;8446731;27;20275;-84
2022/01/01 05:52:14;;;;;;;12.60;9.07;;;11.10;99.90;;;;;;8452190;27;20190;-83
2022/01/01 05:56:15;;;;;;;12.73;8.83;;;11.20;99.90;;;;;;8456572;27;20195;-84
2022/01/01 06:00:16;;;;;;;13.60;8.37;;;11.10;99.90;;;;;;8463170;27;20207;-82
2022/01/01 06:04:17;;;;;;;12.23;9.17;;;11.10;99.90;;;;;;8471978;27;20195;-82
2022/01/01 06:08:18;;;;;;;15.07;9.23;;;11.10;99.90;;;;;;8455134;27;20192;-82
2022/01/01 06:12:19;;;;;;;13.53;9.27;;;11.20;99.90;;;;;;8444858;27;20209;-82
2022/01/01 06:16:20;;;;;;;11.00;8.80;;;11.20;99.90;;;;;;8454305;27;20195;-84
2022/01/01 06:20:21;;;;;;;14.27;7.67;;;11.20;99.90;;;;;;8471825;27;20241;-83
2022/01/01 06:24:22;;;;;;;12.97;8.47;;;11.20;99.90;;;;;;8457686;27;20212;-82
2022/01/01 06:28:23;;;;;;;12.80;8.40;;;11.20;99.90;;;;;;8460436;27;20269;-82
2022/01/01 06:32:24;;;;;;;14.00;8.97;;;11.20;99.90;;;;;;8447621;27;20191;-83
2022/01/01 06:36:24;;;;;;;17.83;8.63;;;11.20;99.90;;;;;;8457464;27;20180;-84
2022/01/01 06:40:25;;;;;;;14.03;8.20;;;11.20;99.90;;;;;;8448702;27;20213;-84
2022/01/01 06:44:26;;;;;;;13.87;8.10;;;11.20;99.90;;;;;;8460249;27;20183;-82
2022/01/01 06:48:27;;;;;;;10.77;8.27;;;11.10;99.90;;;;;;8448579;27;20248;-83
2022/01/01 06:52:28;;;;;;;14.20;8.27;;;11.20;99.90;;;;;;8452755;27;20187;-84
2022/01/01 06:56:29;;;;;;;11.07;8.10;;;11.20;99.90;;;;;;8441624;28;20192;-83
2022/01/01 07:00:30;;;;;;;12.50;7.27;;;11.20;99.90;;;;;;8444583;27;20187;-84
2022/01/01 07:04:30;;;;;;;13.30;7.47;;;11.20;99.90;;;;;;8450542;27;20187;-84
2022/01/01 07:08:31;;;;;;;13.03;7.10;;;11.30;99.90;;;;;;8446429;28;20214;-83
2022/01/01 07:12:34;;;;;;;9.83;7.33;;;11.40;99.90;;;;;;8446505;27;20210;-83
2022/01/01 07:16:35;;;;;;;9.80;6.73;;;11.40;99.90;;;;;;8432025;28;20682;-83
2022/01/01 07:20:36;;;;;;;10.40;6.60;;;11.40;99.90;;;;;;8445244;28;20175;-84
2022/01/01 07:24:37;;;;;;;11.37;7.10;;;11.40;99.90;;;;;;8451678;28;20183;-83
2022/01/01 07:28:37;;;;;;;10.10;6.33;;;11.50;99.90;;;;;;8446340;28;20267;-84
2022/01/01 07:32:43;;;;;;;11.30;6.10;;;11.40;99.90;;;;;;8443872;28;20187;-82
2022/01/01 07:36:44;;;;;;;10.63;6.33;;;11.50;99.90;;;;;;8444332;28;20275;-81
2022/01/01 07:40:45;;;;;;;8.93;6.70;;;11.50;99.90;;;;;;8442333;28;20184;-81
2022/01/01 07:44:46;;;;;;;7.37;5.60;;;11.50;99.90;;;;;;8439720;28;20180;-81
2022/01/01 07:48:46;;;;;;;7.63;5.60;;;11.50;99.90;;;;;;8447311;28;20194;-81
2022/01/01 07:52:47;;;;;;;11.53;6.20;;;11.50;99.90;;;;;;8442822;28;20187;-81
2022/01/01 07:56:48;;;;;;;9.17;6.10;;;11.50;99.90;;;;;;8435493;28;20211;-82
2022/01/01 08:00:49;;;;;;;7.93;6.17;;;11.50;99.90;;;;;;8442944;28;20180;-83
2022/01/01 08:04:50;;;;;;;12.17;6.10;;;11.60;99.90;;;;;;8450457;28;20446;-82
2022/01/01 08:08:50;;;;;;;7.40;5.60;;;11.60;99.90;;;;;;8456693;28;20202;-81
2022/01/01 08:12:51;;;;;;;8.77;5.20;;;11.70;99.90;;;;;;8455888;28;20211;-80
2022/01/01 08:16:55;;;;;;;7.83;6.03;;;11.80;99.90;;;;;;8445920;27;20219;-82
2022/01/01 08:20:56;;;;;;;6.70;5.10;;;11.80;99.90;;;;;;8452069;27;20180;-81
2022/01/01 08:24:57;;;;;;;6.03;4.87;;;11.80;99.90;;;;;;8453318;28;20180;-82
2022/01/01 08:28:58;;;;;;;8.53;4.80;;;11.80;99.90;;;;;;8450938;28;20546;-81
2022/01/01 08:33:02;;;;;;;7.27;5.10;;;11.80;99.90;;;;;;8435983;27;20248;-82
2022/01/01 08:37:03;;;;;;;7.70;4.87;;;11.90;99.90;;;;;;8445305;27;20549;-81
2022/01/01 08:41:06;;;;;;;6.53;4.20;;;11.90;99.90;;;;;;8451491;28;20271;-81
2022/01/01 08:45:07;;;;;;;6.43;4.17;;;12.10;99.90;;;;;;8444714;28;20180;-81
2022/01/01 08:49:09;;;;;;;9.53;4.97;;;12.20;99.90;;;;;;8461574;27;20183;-82
2022/01/01 08:53:10;;;;;;;7.67;4.70;;;12.20;99.90;;;;;;8475073;27;20251;-81
2022/01/01 08:57:11;;;;;;;10.60;5.23;;;12.20;99.90;;;;;;8454829;27;20206;-83
2022/01/01 09:01:12;;;;;;;7.40;4.30;;;12.30;99.90;;;;;;8449884;27;20271;-80
2022/01/01 09:05:13;;;;;;;5.63;4.30;;;12.20;99.90;;;;;;8449195;28;20180;-82
2022/01/01 09:09:15;;;;;;;7.37;4.60;;;12.30;99.90;;;;;;8453032;27;20515;-82
2022/01/01 09:13:16;;;;;;;6.87;4.50;;;12.30;99.90;;;;;;8445149;27;20195;-81
2022/01/01 09:17:17;;;;;;;8.67;4.13;;;12.40;99.90;;;;;;8445806;27;20215;-81
2022/01/01 09:21:18;;;;;;;7.30;4.47;;;12.40;99.90;;;;;;8453618;27;20237;-81
2022/01/01 09:25:19;;;;;;;7.03;4.93;;;12.50;99.90;;;;;;8444165;27;20209;-81
2022/01/01 09:29:19;;;;;;;6.73;4.40;;;12.40;99.90;;;;;;8446936;27;20278;-81
2022/01/01 09:33:20;;;;;;;8.13;4.60;;;12.40;99.90;;;;;;8440999;27;20188;-80
2022/01/01 09:37:23;;;;;;;5.33;4.33;;;12.40;99.90;;;;;;8449018;27;20207;-81
2022/01/01 09:41:24;;;;;;;7.73;4.40;;;12.50;99.90;;;;;;8446942;28;20195;-81
2022/01/01 09:45:25;;;;;;;6.67;4.23;;;12.40;99.90;;;;;;8456783;27;20195;-81
2022/01/01 09:49:26;;;;;;;6.90;4.47;;;12.40;99.90;;;;;;8452733;28;20266;-81
2022/01/01 09:53:28;;;;;;;5.20;3.53;;;12.50;99.90;;;;;;8449220;27;20194;-81
2022/01/01 09:57:31;;;;;;;7.97;4.10;;;12.40;99.90;;;;;;8451289;27;20211;-81
2022/01/01 10:01:32;;;;;;;6.70;4.40;;;12.30;99.90;;;;;;8450815;27;20413;-81
2022/01/01 10:05:33;;;;;;;7.20;4.20;;;12.40;99.90;;;;;;8438324;27;20196;-81
2022/01/01 10:09:35;;;;;;;7.07;4.20;;;12.40;99.90;;;;;;8441679;27;20212;-80
2022/01/01 10:13:39;;;;;;;5.67;3.33;;;12.70;99.90;;;;;;8448317;27;20279;-80
2022/01/01 10:17:40;;;;;;;6.37;3.83;;;13.20;99.90;;;;;;8442007;28;20275;-80
2022/01/01 10:21:42;;;;;;;8.03;4.70;;;13.40;99.90;;;;;;8449041;27;20279;-81
2022/01/01 10:30:03;;;;;;;9.57;4.37;;;12.80;99.90;;;;;;8451962;27;20197;-81
2022/01/01 10:34:16;;;;;;;8.53;4.40;;;12.80;99.90;;;;;;8450479;27;20196;-84
2022/01/01 10:38:22;;;;;;;7.60;5.00;;;12.70;99.90;;;;;;8443332;28;20223;-82
2022/01/01 10:42:23;;;;;;;8.63;4.70;;;12.60;99.90;;;;;;8457063;27;20183;-83
2022/01/01 10:46:28;;;;;;;7.50;4.40;;;12.60;99.90;;;;;;8458719;27;20398;-81
2022/01/01 10:50:37;;;;;;;8.23;4.97;;;12.50;99.90;;;;;;8449698;28;20219;-81
2022/01/01 10:54:46;;;;;;;9.27;5.37;;;12.30;99.90;;;;;;8453019;27;20310;-81
2022/01/01 10:58:59;;;;;;;8.80;4.97;;;12.20;99.90;;;;;;8449610;27;20257;-81
2022/01/01 11:03:01;;;;;;;8.00;5.00;;;12.10;99.90;;;;;;8448032;27;20199;-83
2022/01/01 11:07:03;;;;;;;10.23;4.70;;;12.10;99.90;;;;;;8454662;28;20191;-81
2022/01/01 11:11:04;;;;;;;8.23;4.80;;;12.20;99.90;;;;;;8446144;28;20331;-81
2022/01/01 11:15:07;;;;;;;7.47;4.23;;;12.10;99.90;;;;;;8440399;28;20269;-81
2022/01/01 11:19:09;;;;;;;6.40;4.87;;;12.20;99.90;;;;;;8463710;27;20238;-79
2022/01/01 11:23:11;;;;;;;8.23;4.37;;;12.50;99.90;;;;;;8451802;28;20184;-80
2022/01/01 11:27:12;;;;;;;6.10;3.80;;;12.70;99.90;;;;;;8457773;28;20291;-82
2022/01/01 11:31:18;;;;;;;6.73;4.23;;;12.60;99.90;;;;;;8459217;28;20192;-80
2022/01/01 11:35:33;;;;;;;6.93;4.20;;;12.50;99.90;;;;;;8455850;28;20193;-81
2022/01/01 11:39:34;;;;;;;6.93;4.23;;;12.40;99.90;;;;;;8448494;28;20207;-81
2022/01/01 11:43:43;;;;;;;8.03;4.60;;;12.40;99.90;;;;;;8452238;28;20191;-81
2022/01/01 11:47:49;;;;;;;9.73;4.30;;;12.50;99.90;;;;;;8440813;28;20188;-81
2022/01/01 11:51:52;;;;;;;6.47;3.87;;;12.50;99.90;;;;;;8442737;27;20185;-81
2022/01/01 11:56:13;;;;;;;6.73;4.00;;;12.50;99.90;;;;;;8457048;27;20180;-81
2022/01/01 12:00:14;;;;;;;8.00;3.93;;;12.50;99.90;;;;;;8445242;28;20259;-81
2022/01/01 12:04:41;;;;;;;6.10;4.17;;;12.40;99.90;;;;;;8458524;27;20203;-82
2022/01/01 12:08:46;;;;;;;8.33;4.07;;;12.40;99.90;;;;;;8460805;27;20174;-80
2022/01/01 12:12:48;;;;;;;7.10;3.87;;;12.40;99.90;;;;;;8463809;27;20203;-81
2022/01/01 12:16:50;;;;;;;9.57;4.13;;;12.40;99.90;;;;;;8461240;27;20191;-82
2022/01/01 12:21:01;;;;;;;6.47;3.83;;;12.50;99.90;;;;;;8448059;27;20181;-82
2022/01/01 12:25:03;;;;;;;7.77;3.50;;;12.40;99.90;;;;;;8463692;27;20176;-81
2022/01/01 12:29:09;;;;;;;7.53;4.40;;;12.40;99.90;;;;;;8454717;27;20181;-81
2022/01/01 12:33:38;;;;;;;10.13;4.33;;;12.50;99.90;;;;;;8435304;28;20330;-82
2022/01/01 12:37:39;;;;;;;8.80;4.53;;;12.60;99.90;;;;;;8450662;27;20207;-83
2022/01/01 12:41:44;;;;;;;8.60;3.93;;;12.60;99.90;;;;;;8454379;27;20184;-82
2022/01/01 12:45:53;;;;;;;10.93;3.97;;;12.60;99.90;;;;;;8457529;27;20183;-80
2022/01/01 12:50:02;;;;;;;8.43;4.47;;;12.60;99.90;;;;;;8433160;28;20184;-80
2022/01/01 12:54:15;;;;;;;5.83;3.80;;;12.60;99.90;;;;;;8447138;28;20184;-80
2022/01/01 12:58:21;;;;;;;8.80;4.43;;;12.60;99.90;;;;;;8447533;27;20219;-81
2022/01/01 13:02:23;;;;;;;9.00;4.30;;;12.60;99.90;;;;;;8443317;28;20177;-82
2022/01/01 13:06:33;;;;;;;8.17;4.10;;;12.60;99.90;;;;;;8452125;28;20180;-81
2022/01/01 13:10:34;;;;;;;10.20;4.50;;;12.50;99.90;;;;;;8430414;27;20215;-82
2022/01/01 13:14:37;;;;;;;11.10;4.83;;;12.40;99.90;;;;;;8448789;27;20226;-82
2022/01/01 13:18:38;;;;;;;8.63;4.47;;;12.40;99.90;;;;;;8454377;27;20214;-80
2022/01/01 13:22:39;;;;;;;9.70;4.67;;;12.40;99.90;;;;;;8460620;27;20262;-81
2022/01/01 13:26:43;;;;;;;8.13;4.83;;;12.20;99.90;;;;;;8461060;27;20190;-81
2022/01/01 13:30:45;;;;;;;8.57;4.60;;;12.20;99.90;;;;;;8454394;28;21298;-82
2022/01/01 13:34:54;;;;;;;6.70;4.37;;;12.20;99.90;;;;;;8449661;27;20212;-80
2022/01/01 13:38:56;;;;;;;8.93;5.00;;;12.20;99.90;;;;;;8455511;27;20206;-82
2022/01/01 13:43:11;;;;;;;9.13;5.27;;;12.20;99.90;;;;;;8450863;28;20180;-81
2022/01/01 13:47:25;;;;;;;7.53;5.10;;;12.20;99.90;;;;;;8450410;27;20199;-81
2022/01/01 13:51:28;;;;;;;8.50;4.93;;;12.00;99.90;;;;;;8444454;27;20184;-81
2022/01/01 13:55:29;;;;;;;7.63;5.27;;;11.90;99.90;;;;;;8450741;28;20220;-81
2022/01/01 13:59:32;;;;;;;7.50;5.20;;;11.80;99.90;;;;;;8448867;28;20244;-80
2022/01/01 14:03:33;;;;;;;8.97;5.97;;;11.70;99.90;;;;;;8440981;27;20192;-80
2022/01/01 14:07:34;;;;;;;12.50;6.20;;;11.60;99.90;;;;;;8457821;27;20187;-81
2022/01/01 14:11:38;;;;;;;11.27;5.97;;;11.50;99.90;;;;;;8451581;27;20203;-81
2022/01/01 14:15:39;;;;;;;10.10;6.90;;;11.50;99.90;;;;;;8429101;28;20294;-84
2022/01/01 14:19:40;;;;;;;11.23;6.47;;;11.50;99.90;;;;;;8456662;27;20200;-83
2022/01/01 14:23:42;;;;;;;10.20;6.27;;;11.50;99.90;;;;;;8447456;28;20244;-81
2022/01/01 14:27:43;;;;;;;10.87;6.17;;;11.40;99.90;;;;;;8452323;28;20192;-83
2022/01/01 14:31:45;;;;;;;10.33;6.73;;;11.50;99.90;;;;;;8453069;27;20184;-82
2022/01/01 14:35:46;;;;;;;11.70;6.07;;;11.40;99.90;;;;;;8440912;27;20191;-82
2022/01/01 14:39:48;;;;;;;13.97;6.23;;;11.50;99.90;;;;;;8457677;27;20229;-81
2022/01/01 14:43:50;;;;;;;10.47;5.80;;;11.50;99.90;;;;;;8456977;27;20239;-81
2022/01/01 14:48:15;;;;;;;10.57;6.10;;;11.40;99.90;;;;;;8440777;28;20187;-80
2022/01/01 14:52:30;;;;;;;8.83;5.33;;;11.40;99.90;;;;;;8447249;28;20188;-81
2022/01/01 14:56:33;;;;;;;9.37;5.57;;;11.30;99.90;;;;;;8446369;27;20184;-81
2022/01/01 15:00:39;;;;;;;10.87;6.10;;;11.30;99.90;;;;;;8457637;27;20210;-79
2022/01/01 15:04:42;;;;;;;10.00;6.70;;;11.30;99.90;;;;;;8441874;27;20191;-80
2022/01/01 15:08:47;;;;;;;12.00;6.53;;;11.20;99.90;;;;;;8444190;27;20184;-81
2022/01/01 15:12:48;;;;;;;10.57;6.50;;;11.20;99.90;;;;;;8444350;27;20207;-81
2022/01/01 15:16:52;;;;;;;8.77;6.30;;;11.10;99.90;;;;;;8451904;28;20196;-80
2022/01/01 15:21:01;;;;;;;10.13;6.80;;;11.00;99.90;;;;;;8455093;27;20264;-80
2022/01/01 15:25:03;;;;;;;12.50;9.47;;;10.90;99.90;;;;;;8448208;28;20180;-80
2022/01/01 15:29:14;;;;;;;18.97;10.13;;;10.90;99.90;;;;;;8450028;28;20188;-80
2022/01/01 15:33:26;;;;;;;10.27;7.00;;;11.00;99.90;;;;;;8440965;28;20278;-83
2022/01/01 15:37:30;;;;;;;9.40;6.70;;;11.00;99.90;;;;;;8442933;28;20242;-83
2022/01/01 15:41:53;;;;;;;9.50;5.80;;;11.00;99.90;;;;;;8453439;28;20235;-83
2022/01/01 15:45:55;;;;;;;11.97;6.20;;;11.00;99.90;;;;;;8441937;28;20266;-82
2022/01/01 15:49:56;;;;;;;8.47;5.63;;;11.00;99.90;;;;;;8466875;28;20201;-83
2022/01/01 15:53:57;;;;;;;12.13;6.73;;;11.00;99.90;;;;;;8451357;28;20203;-83
2022/01/01 15:58:00;;;;;;;12.60;6.50;;;11.00;99.90;;;;;;8452515;28;20214;-84
2022/01/01 16:02:23;;;;;;;11.53;6.40;;;11.00;99.90;;;;;;8452037;28;20192;-83
2022/01/01 16:06:25;;;;;;;10.37;6.10;;;11.00;99.90;;;;;;8456024;28;20176;-82
2022/01/01 16:10:27;;;;;;;13.50;6.60;;;10.90;99.90;;;;;;8441328;28;20208;-84
2022/01/01 16:14:36;;;;;;;12.90;6.37;;;10.90;99.90;;;;;;8451113;28;20284;-83
2022/01/01 16:18:41;;;;;;;11.07;6.90;;;10.90;99.90;;;;;;8448625;28;20211;-83
2022/01/01 16:22:41;;;;;;;13.60;6.80;;;10.90;99.90;;;;;;8448495;28;20182;-83
2022/01/01 16:26:44;;;;;;;9.30;6.57;;;11.00;99.90;;;;;;8448310;28;20248;-85
2022/01/01 16:30:45;;;;;;;12.27;6.77;;;11.00;99.90;;;;;;8453013;28;20223;-83
2022/01/01 16:34:49;;;;;;;10.97;7.27;;;11.00;99.90;;;;;;8450310;28;20236;-83
2022/01/01 16:38:51;;;;;;;14.00;7.73;;;11.00;99.90;;;;;;8453819;27;20200;-83
2022/01/01 16:42:52;;;;;;;10.67;6.43;;;11.00;99.90;;;;;;8451980;27;20192;-83
2022/01/01 16:47:08;;;;;;;12.87;6.70;;;11.00;99.90;;;;;;8457988;27;20265;-83
2022/01/01 16:51:12;;;;;;;11.53;6.73;;;11.00;99.90;;;;;;8454032;28;20421;-82
2022/01/01 16:55:19;;;;;;;13.37;7.83;;;11.00;99.90;;;;;;8452577;28;20195;-83
2022/01/01 16:59:23;;;;;;;14.83;6.83;;;11.10;99.90;;;;;;8450127;28;20203;-84
2022/01/01 17:03:46;;;;;;;14.07;8.73;;;11.10;99.90;;;;;;8460721;28;20179;-83
2022/01/01 17:07:48;;;;;;;15.67;8.57;;;11.20;99.90;;;;;;8459437;28;20186;-83
2022/01/01 17:11:50;;;;;;;13.70;6.97;;;11.10;99.90;;;;;;8458351;27;20352;-83
2022/01/01 17:16:07;;;;;;;10.90;6.67;;;11.20;99.90;;;;;;8454780;27;20232;-82
2022/01/01 17:20:14;;;;;;;9.07;6.23;;;11.20;99.90;;;;;;8451599;28;20265;-82
2022/01/01 17:24:20;;;;;;;10.37;5.97;;;11.20;99.90;;;;;;8452318;28;20184;-83
2022/01/01 17:28:51;;;;;;;8.70;5.83;;;11.20;99.90;;;;;;8439060;27;20196;-82
2022/01/01 17:33:06;;;;;;;15.57;7.87;;;11.20;99.90;;;;;;8457678;27;20211;-82
2022/01/01 17:37:12;;;;;;;14.87;6.80;;;11.20;99.90;;;;;;8452072;27;20259;-82
2022/01/01 17:41:14;;;;;;;16.87;7.10;;;11.20;99.90;;;;;;8446424;28;20191;-82
2022/01/01 17:45:17;;;;;;;16.73;9.00;;;11.20;99.90;;;;;;8444235;28;20267;-83
2022/01/01 17:49:25;;;;;;;10.67;6.03;;;11.30;99.90;;;;;;8456334;27;20183;-82
2022/01/01 17:53:27;;;;;;;12.63;5.90;;;11.30;99.90;;;;;;8430770;28;20191;-83
2022/01/01 17:57:29;;;;;;;11.00;5.73;;;11.30;99.90;;;;;;8452582;27;20206;-82
2022/01/01 18:01:32;;;;;;;12.10;6.33;;;11.30;99.90;;;;;;8455482;27;20188;-82
2022/01/01 18:05:40;;;;;;;14.30;6.20;;;11.30;99.90;;;;;;8455018;28;20172;-82
2022/01/01 18:09:47;;;;;;;13.27;6.87;;;11.30;99.90;;;;;;8457401;27;20203;-84
2022/01/01 18:13:54;;;;;;;9.03;6.50;;;11.40;99.90;;;;;;8441453;27;20181;-83
2022/01/01 18:18:06;;;;;;;10.10;5.57;;;11.40;99.90;;;;;;8449353;27;20232;-84
2022/01/01 18:22:09;;;;;;;9.97;5.53;;;11.40;99.90;;;;;;8460378;27;20187;-83
2022/01/01 18:26:12;;;;;;;8.67;5.00;;;11.40;99.90;;;;;;8463735;27;20197;-84
2022/01/01 18:30:13;;;;;;;9.30;5.40;;;11.40;99.90;;;;;;8459740;27;20192;-83
2022/01/01 18:34:14;;;;;;;10.47;5.13;;;11.30;99.90;;;;;;8446320;27;20207;-83
2022/01/01 18:38:20;;;;;;;9.47;4.97;;;11.30;99.90;;;;;;8452593;27;20211;-82
2022/01/01 18:42:24;;;;;;;14.63;6.20;;;11.40;99.90;;;;;;8453974;28;20244;-82
2022/01/01 18:46:27;;;;;;;13.43;6.47;;;11.30;99.90;;;;;;8454258;27;20183;-82
2022/01/01 18:50:29;;;;;;;13.07;5.67;;;11.40;99.90;;;;;;8448479;27;20184;-82
2022/01/01 18:54:35;;;;;;;13.47;4.50;;;11.40;99.90;;;;;;8448166;27;20184;-82
2022/01/01 18:58:41;;;;;;;11.03;6.10;;;11.40;99.90;;;;;;8451770;28;20276;-83
2022/01/01 19:02:49;;;;;;;15.80;8.30;;;11.40;99.90;;;;;;8444358;27;20199;-83
2022/01/01 19:06:51;;;;;;;13.23;6.83;;;11.40;99.90;;;;;;8448547;27;20180;-82
2022/01/01 19:10:53;;;;;;;20.93;9.97;;;11.40;99.90;;;;;;8451453;27;20203;-83
2022/01/01 19:15:05;;;;;;;21.87;9.73;;;11.40;99.90;;;;;;8449356;28;20196;-83
2022/01/01 19:19:11;;;;;;;13.13;6.67;;;11.30;99.90;;;;;;8449829;27;20204;-82
2022/01/01 19:23:18;;;;;;;12.13;6.03;;;11.30;99.90;;;;;;8445835;27;20184;-83
2022/01/01 19:27:24;;;;;;;9.90;5.97;;;11.20;99.90;;;;;;8448111;28;20207;-84
2022/01/01 19:31:30;;;;;;;14.37;7.17;;;11.20;99.90;;;;;;8451989;28;20202;-83
2022/01/01 19:35:32;;;;;;;10.93;6.77;;;11.20;99.90;;;;;;8445673;28;20287;-82
2022/01/01 19:39:35;;;;;;;14.13;8.03;;;11.20;99.90;;;;;;8448455;28;20211;-83
2022/01/01 19:43:59;;;;;;;15.37;8.70;;;11.20;99.90;;;;;;8438765;28;20176;-82
2022/01/01 19:48:05;;;;;;;19.60;10.23;;;11.20;99.90;;;;;;8446122;28;20184;-83
2022/01/01 19:52:08;;;;;;;15.40;8.77;;;11.20;99.90;;;;;;8464415;28;20219;-82
2022/01/01 19:56:11;;;;;;;25.20;11.93;;;11.20;99.90;;;;;;8441054;28;20196;-83
2022/01/01 20:00:16;;;;;;;23.80;13.13;;;11.20;99.90;;;;;;8459251;27;20269;-82
2022/01/01 20:04:17;;;;;;;20.90;13.17;;;11.10;99.90;;;;;;8420321;28;20191;-82
2022/01/01 20:08:19;;;;;;;25.50;19.27;;;11.10;99.90;;;;;;8457229;28;20191;-82
2022/01/01 20:12:20;;;;;;;37.10;21.20;;;11.00;99.90;;;;;;8449092;27;20200;-83
2022/01/01 20:16:27;;;;;;;36.17;18.63;;;11.00;99.90;;;;;;8450743;27;20200;-83
2022/01/01 20:20:31;;;;;;;23.30;12.77;;;10.90;99.90;;;;;;8463396;27;20207;-83
2022/01/01 20:24:33;;;;;;;21.83;12.27;;;10.90;99.90;;;;;;8459853;27;20461;-82
2022/01/01 20:28:34;;;;;;;36.03;15.63;;;10.90;99.90;;;;;;8432951;27;20187;-82
2022/01/01 20:32:36;;;;;;;24.60;10.70;;;10.90;99.90;;;;;;8447515;28;20190;-83
2022/01/01 20:36:41;;;;;;;23.77;10.50;;;10.90;99.90;;;;;;8451280;27;20316;-82
2022/01/01 20:40:41;;;;;;;14.17;7.47;;;10.90;99.90;;;;;;8444615;27;20209;-82
2022/01/01 20:44:44;;;;;;;15.40;8.30;;;10.90;99.90;;;;;;8456324;27;20180;-82
2022/01/01 20:48:45;;;;;;;14.87;9.57;;;11.00;99.90;;;;;;8443887;28;20210;-83
2022/01/01 20:52:46;;;;;;;15.07;8.63;;;11.00;99.90;;;;;;8458277;27;20290;-83
2022/01/01 20:56:52;;;;;;;14.33;9.00;;;11.00;99.90;;;;;;8466634;27;20207;-82
2022/01/01 21:00:53;;;;;;;12.57;8.00;;;11.00;99.90;;;;;;8460838;27;20208;-83
2022/01/01 21:05:00;;;;;;;14.40;7.30;;;10.90;99.90;;;;;;8451577;27;20279;-82